KCMH/CMH METAR and TAF weather

Enter ICAO airport designator
Station Type Date Time Source
KCMH METAR 2021/05/12 00:51 UTC NOAA

KCMH 120051Z 35007KT 10SM FEW065 SCT150 SCT250 09/M01 A3028 RMK AO2 SLP257 T00891011


Station Type Date Time Source
KCMH Decoded METAR 2021/05/12 00:51 UTC NOAA

PORT COLUMBUS INTERNATIONAL AIRPORT, OH, United States (KCMH) 40-00N 82-53W 247M
May 11, 2021 - 08:51 PM EDT / 2021.05.12 0051 UTC
Wind: from the N (350 degrees) at 8 MPH (7 KT):0
Visibility: 10 mile(s):0
Sky conditions: partly cloudy
Temperature: 48.0 F (8.9 C)
Dew Point: 30.0 F (-1.1 C)
Relative Humidity: 49%
Pressure (altimeter): 30.28 in. Hg (1025 hPa)
ob: KCMH 120051Z 35007KT 10SM FEW065 SCT150 SCT250 09/M01 A3028 RMK AO2 SLP257 T00891011
cycle: 1

Station Type Date Time Source
KCMH TAF 2021/05/11 18:27 UTC NOAA

TAF KCMH 111725Z 1118/1218 33010G18KT P6SM SCT100
FM112300 35004KT P6SM FEW250
FM121400 03007KT P6SM SKC

Example: see airport list